sensor_id;sensor_type;location;lat;lon;timestamp;P1;durP1;ratioP1;P2;durP2;ratioP2
29814;SDS011;16708;50.426;7.664;2023-02-15T00:03:55;170.70;;;25.00;;
29814;SDS011;16708;50.426;7.664;2023-02-15T00:08:49;141.90;;;24.80;;
29814;SDS011;16708;50.426;7.664;2023-02-15T00:13:43;203.20;;;24.70;;
29814;SDS011;16708;50.426;7.664;2023-02-15T00:18:37;83.70;;;20.60;;
29814;SDS011;16708;50.426;7.664;2023-02-15T00:23:32;77.80;;;19.00;;
29814;SDS011;16708;50.426;7.664;2023-02-15T00:28:26;59.10;;;17.10;;
29814;SDS011;16708;50.426;7.664;2023-02-15T00:33:20;54.80;;;16.70;;
29814;SDS011;16708;50.426;7.664;2023-02-15T00:38:14;54.30;;;17.30;;
29814;SDS011;16708;50.426;7.664;2023-02-15T00:43:08;58.20;;;18.50;;
29814;SDS011;16708;50.426;7.664;2023-02-15T00:48:01;54.90;;;16.90;;
29814;SDS011;16708;50.426;7.664;2023-02-15T00:52:56;52.80;;;18.00;;
29814;SDS011;16708;50.426;7.664;2023-02-15T00:57:49;46.60;;;15.70;;
29814;SDS011;16708;50.426;7.664;2023-02-15T01:02:43;47.50;;;16.00;;
29814;SDS011;16708;50.426;7.664;2023-02-15T01:07:37;40.60;;;14.00;;
29814;SDS011;16708;50.426;7.664;2023-02-15T01:12:31;39.40;;;13.50;;
29814;SDS011;16708;50.426;7.664;2023-02-15T01:17:23;44.80;;;15.20;;
29814;SDS011;16708;50.426;7.664;2023-02-15T01:22:18;43.10;;;14.60;;
29814;SDS011;16708;50.426;7.664;2023-02-15T01:27:12;43.20;;;14.90;;
29814;SDS011;16708;50.426;7.664;2023-02-15T01:32:06;40.10;;;14.00;;
29814;SDS011;16708;50.426;7.664;2023-02-15T01:37:00;45.00;;;15.00;;
29814;SDS011;16708;50.426;7.664;2023-02-15T01:41:51;47.00;;;16.00;;
29814;SDS011;16708;50.426;7.664;2023-02-15T01:46:45;45.50;;;15.30;;
29814;SDS011;16708;50.426;7.664;2023-02-15T01:51:39;43.20;;;14.80;;
29814;SDS011;16708;50.426;7.664;2023-02-15T01:56:33;48.50;;;15.00;;
29814;SDS011;16708;50.426;7.664;2023-02-15T02:01:26;41.70;;;13.20;;
29814;SDS011;16708;50.426;7.664;2023-02-15T02:06:20;42.70;;;13.90;;
29814;SDS011;16708;50.426;7.664;2023-02-15T02:11:14;39.90;;;13.10;;
29814;SDS011;16708;50.426;7.664;2023-02-15T02:30:49;37.90;;;13.10;;
29814;SDS011;16708;50.426;7.664;2023-02-15T02:35:44;36.80;;;12.40;;
29814;SDS011;16708;50.426;7.664;2023-02-15T02:40:38;39.50;;;13.50;;
29814;SDS011;16708;50.426;7.664;2023-02-15T02:45:32;35.50;;;11.80;;
29814;SDS011;16708;50.426;7.664;2023-02-15T02:50:26;30.00;;;10.80;;
29814;SDS011;16708;50.426;7.664;2023-02-15T02:55:20;31.80;;;10.50;;
29814;SDS011;16708;50.426;7.664;2023-02-15T03:00:14;38.10;;;12.20;;
29814;SDS011;16708;50.426;7.664;2023-02-15T03:05:08;29.90;;;11.30;;
29814;SDS011;16708;50.426;7.664;2023-02-15T03:10:03;30.70;;;11.30;;
29814;SDS011;16708;50.426;7.664;2023-02-15T03:14:56;35.50;;;11.40;;
29814;SDS011;16708;50.426;7.664;2023-02-15T03:19:50;32.20;;;11.20;;
29814;SDS011;16708;50.426;7.664;2023-02-15T03:24:44;38.20;;;13.10;;
29814;SDS011;16708;50.426;7.664;2023-02-15T03:29:38;36.90;;;12.70;;
29814;SDS011;16708;50.426;7.664;2023-02-15T03:34:32;55.90;;;13.30;;
29814;SDS011;16708;50.426;7.664;2023-02-15T03:39:27;48.60;;;13.00;;
29814;SDS011;16708;50.426;7.664;2023-02-15T03:44:21;70.90;;;14.30;;
29814;SDS011;16708;50.426;7.664;2023-02-15T03:49:15;52.80;;;13.60;;
29814;SDS011;16708;50.426;7.664;2023-02-15T03:54:09;62.00;;;14.70;;
29814;SDS011;16708;50.426;7.664;2023-02-15T03:59:02;55.50;;;13.90;;
29814;SDS011;16708;50.426;7.664;2023-02-15T04:03:56;46.90;;;12.80;;
29814;SDS011;16708;50.426;7.664;2023-02-15T04:08:50;52.00;;;12.90;;
29814;SDS011;16708;50.426;7.664;2023-02-15T04:13:44;48.50;;;11.30;;
29814;SDS011;16708;50.426;7.664;2023-02-15T04:18:37;60.70;;;13.30;;
29814;SDS011;16708;50.426;7.664;2023-02-15T04:23:31;60.70;;;13.10;;
29814;SDS011;16708;50.426;7.664;2023-02-15T04:28:25;48.80;;;13.40;;
29814;SDS011;16708;50.426;7.664;2023-02-15T04:33:19;42.00;;;12.60;;
29814;SDS011;16708;50.426;7.664;2023-02-15T04:38:13;40.10;;;11.80;;
29814;SDS011;16708;50.426;7.664;2023-02-15T04:43:07;36.10;;;11.60;;
29814;SDS011;16708;50.426;7.664;2023-02-15T04:48:00;40.80;;;11.70;;
29814;SDS011;16708;50.426;7.664;2023-02-15T04:52:54;33.40;;;10.60;;
29814;SDS011;16708;50.426;7.664;2023-02-15T04:57:47;35.10;;;11.10;;
29814;SDS011;16708;50.426;7.664;2023-02-15T05:02:42;36.80;;;11.00;;
29814;SDS011;16708;50.426;7.664;2023-02-15T05:07:34;35.70;;;12.00;;
29814;SDS011;16708;50.426;7.664;2023-02-15T05:12:28;58.50;;;13.70;;
29814;SDS011;16708;50.426;7.664;2023-02-15T05:17:23;58.00;;;14.30;;
29814;SDS011;16708;50.426;7.664;2023-02-15T05:22:16;45.80;;;13.10;;
29814;SDS011;16708;50.426;7.664;2023-02-15T05:27:10;59.90;;;15.10;;
29814;SDS011;16708;50.426;7.664;2023-02-15T05:32:04;52.70;;;14.30;;
29814;SDS011;16708;50.426;7.664;2023-02-15T05:36:56;51.00;;;14.50;;
29814;SDS011;16708;50.426;7.664;2023-02-15T05:41:50;52.30;;;14.60;;
29814;SDS011;16708;50.426;7.664;2023-02-15T05:46:44;48.40;;;13.50;;
29814;SDS011;16708;50.426;7.664;2023-02-15T05:51:38;47.80;;;13.50;;
29814;SDS011;16708;50.426;7.664;2023-02-15T05:56:32;44.30;;;13.50;;
29814;SDS011;16708;50.426;7.664;2023-02-15T06:01:27;37.50;;;11.80;;
29814;SDS011;16708;50.426;7.664;2023-02-15T06:06:21;38.90;;;11.10;;
29814;SDS011;16708;50.426;7.664;2023-02-15T06:11:13;45.40;;;12.90;;
29814;SDS011;16708;50.426;7.664;2023-02-15T06:16:07;36.90;;;11.70;;
29814;SDS011;16708;50.426;7.664;2023-02-15T06:21:01;36.30;;;11.70;;
29814;SDS011;16708;50.426;7.664;2023-02-15T06:25:55;36.10;;;10.80;;
29814;SDS011;16708;50.426;7.664;2023-02-15T06:30:49;38.90;;;13.20;;
29814;SDS011;16708;50.426;7.664;2023-02-15T06:35:43;37.50;;;12.00;;
29814;SDS011;16708;50.426;7.664;2023-02-15T06:40:36;33.70;;;10.90;;
29814;SDS011;16708;50.426;7.664;2023-02-15T06:45:30;34.20;;;10.70;;
29814;SDS011;16708;50.426;7.664;2023-02-15T06:50:24;31.80;;;11.10;;
29814;SDS011;16708;50.426;7.664;2023-02-15T06:55:19;32.80;;;10.20;;
29814;SDS011;16708;50.426;7.664;2023-02-15T07:00:13;33.50;;;11.20;;
29814;SDS011;16708;50.426;7.664;2023-02-15T07:05:06;125.40;;;29.40;;
29814;SDS011;16708;50.426;7.664;2023-02-15T07:10:00;42.70;;;13.20;;
29814;SDS011;16708;50.426;7.664;2023-02-15T07:14:55;40.40;;;13.10;;
29814;SDS011;16708;50.426;7.664;2023-02-15T07:19:49;37.50;;;12.40;;
29814;SDS011;16708;50.426;7.664;2023-02-15T07:24:43;31.10;;;11.40;;
29814;SDS011;16708;50.426;7.664;2023-02-15T07:29:38;34.90;;;11.80;;
29814;SDS011;16708;50.426;7.664;2023-02-15T07:34:32;32.50;;;11.20;;
29814;SDS011;16708;50.426;7.664;2023-02-15T07:39:26;42.40;;;13.60;;
29814;SDS011;16708;50.426;7.664;2023-02-15T07:44:20;43.70;;;13.90;;
29814;SDS011;16708;50.426;7.664;2023-02-15T07:49:14;34.00;;;11.90;;
29814;SDS011;16708;50.426;7.664;2023-02-15T07:54:08;38.30;;;13.20;;
29814;SDS011;16708;50.426;7.664;2023-02-15T07:59:02;32.80;;;11.40;;
29814;SDS011;16708;50.426;7.664;2023-02-15T08:03:55;32.50;;;11.40;;
29814;SDS011;16708;50.426;7.664;2023-02-15T08:08:50;29.00;;;10.90;;
29814;SDS011;16708;50.426;7.664;2023-02-15T08:13:44;29.50;;;10.80;;
29814;SDS011;16708;50.426;7.664;2023-02-15T08:18:39;26.80;;;9.90;;
29814;SDS011;16708;50.426;7.664;2023-02-15T08:23:33;30.20;;;11.10;;
29814;SDS011;16708;50.426;7.664;2023-02-15T08:28:27;23.90;;;9.40;;
29814;SDS011;16708;50.426;7.664;2023-02-15T08:33:21;35.90;;;12.30;;
29814;SDS011;16708;50.426;7.664;2023-02-15T08:38:16;33.60;;;11.90;;
29814;SDS011;16708;50.426;7.664;2023-02-15T08:43:10;31.00;;;11.00;;
29814;SDS011;16708;50.426;7.664;2023-02-15T08:48:04;30.10;;;10.40;;
29814;SDS011;16708;50.426;7.664;2023-02-15T08:52:58;27.60;;;11.00;;
29814;SDS011;16708;50.426;7.664;2023-02-15T08:57:52;28.60;;;10.70;;
29814;SDS011;16708;50.426;7.664;2023-02-15T09:02:47;29.50;;;11.00;;
29814;SDS011;16708;50.426;7.664;2023-02-15T09:07:44;27.10;;;10.60;;
29814;SDS011;16708;50.426;7.664;2023-02-15T09:12:36;22.20;;;9.00;;
29814;SDS011;16708;50.426;7.664;2023-02-15T09:17:32;17.20;;;8.10;;
29814;SDS011;16708;50.426;7.664;2023-02-15T09:22:28;15.10;;;6.90;;
29814;SDS011;16708;50.426;7.664;2023-02-15T09:27:24;13.60;;;6.60;;
29814;SDS011;16708;50.426;7.664;2023-02-15T09:32:19;11.90;;;6.60;;
29814;SDS011;16708;50.426;7.664;2023-02-15T09:37:13;13.60;;;6.40;;
29814;SDS011;16708;50.426;7.664;2023-02-15T09:47:01;12.60;;;6.70;;
29814;SDS011;16708;50.426;7.664;2023-02-15T09:56:50;10.20;;;6.00;;
29814;SDS011;16708;50.426;7.664;2023-02-15T10:06:39;14.10;;;7.10;;
29814;SDS011;16708;50.426;7.664;2023-02-15T10:26:18;11.20;;;6.80;;
29814;SDS011;16708;50.426;7.664;2023-02-15T10:31:12;12.90;;;7.20;;
29814;SDS011;16708;50.426;7.664;2023-02-15T10:36:05;14.30;;;7.90;;
29814;SDS011;16708;50.426;7.664;2023-02-15T10:50:49;12.40;;;7.60;;
29814;SDS011;16708;50.426;7.664;2023-02-15T10:55:43;15.80;;;9.00;;
29814;SDS011;16708;50.426;7.664;2023-02-15T11:00:38;13.20;;;7.80;;
29814;SDS011;16708;50.426;7.664;2023-02-15T11:05:32;13.50;;;8.00;;
29814;SDS011;16708;50.426;7.664;2023-02-15T11:10:27;13.50;;;8.80;;
29814;SDS011;16708;50.426;7.664;2023-02-15T11:15:21;12.40;;;8.50;;
29814;SDS011;16708;50.426;7.664;2023-02-15T11:20:15;17.10;;;9.30;;
29814;SDS011;16708;50.426;7.664;2023-02-15T11:25:09;14.40;;;8.80;;
29814;SDS011;16708;50.426;7.664;2023-02-15T11:30:03;15.80;;;9.20;;
29814;SDS011;16708;50.426;7.664;2023-02-15T11:34:57;15.90;;;9.10;;
29814;SDS011;16708;50.426;7.664;2023-02-15T11:39:51;12.80;;;8.60;;
29814;SDS011;16708;50.426;7.664;2023-02-15T11:44:45;13.10;;;8.80;;
29814;SDS011;16708;50.426;7.664;2023-02-15T11:49:39;13.90;;;9.30;;
29814;SDS011;16708;50.426;7.664;2023-02-15T11:54:34;16.90;;;9.90;;
29814;SDS011;16708;50.426;7.664;2023-02-15T11:59:28;16.70;;;9.80;;
29814;SDS011;16708;50.426;7.664;2023-02-15T12:04:22;17.40;;;10.60;;
29814;SDS011;16708;50.426;7.664;2023-02-15T12:09:17;14.80;;;10.00;;
29814;SDS011;16708;50.426;7.664;2023-02-15T12:14:11;24.10;;;13.20;;
29814;SDS011;16708;50.426;7.664;2023-02-15T12:19:06;17.90;;;10.50;;
29814;SDS011;16708;50.426;7.664;2023-02-15T12:24:01;14.10;;;9.40;;
29814;SDS011;16708;50.426;7.664;2023-02-15T12:28:55;13.60;;;10.10;;
29814;SDS011;16708;50.426;7.664;2023-02-15T12:33:49;14.30;;;10.00;;
29814;SDS011;16708;50.426;7.664;2023-02-15T12:38:43;24.80;;;13.20;;
29814;SDS011;16708;50.426;7.664;2023-02-15T12:43:37;16.30;;;10.50;;
29814;SDS011;16708;50.426;7.664;2023-02-15T12:58:18;14.20;;;10.50;;
29814;SDS011;16708;50.426;7.664;2023-02-15T13:08:06;12.80;;;9.80;;
29814;SDS011;16708;50.426;7.664;2023-02-15T13:13:00;12.90;;;10.20;;
29814;SDS011;16708;50.426;7.664;2023-02-15T13:17:54;14.00;;;10.20;;
29814;SDS011;16708;50.426;7.664;2023-02-15T13:22:49;12.50;;;9.90;;
29814;SDS011;16708;50.426;7.664;2023-02-15T13:27:43;12.60;;;9.90;;
29814;SDS011;16708;50.426;7.664;2023-02-15T13:32:37;12.90;;;9.30;;
29814;SDS011;16708;50.426;7.664;2023-02-15T13:37:30;11.80;;;9.40;;
29814;SDS011;16708;50.426;7.664;2023-02-15T13:42:24;11.70;;;9.30;;
29814;SDS011;16708;50.426;7.664;2023-02-15T13:57:07;11.20;;;9.00;;
29814;SDS011;16708;50.426;7.664;2023-02-15T14:06:55;13.30;;;9.10;;
29814;SDS011;16708;50.426;7.664;2023-02-15T14:16:43;11.60;;;8.80;;
29814;SDS011;16708;50.426;7.664;2023-02-15T14:26:31;11.30;;;8.60;;
29814;SDS011;16708;50.426;7.664;2023-02-15T14:31:22;11.30;;;8.40;;
29814;SDS011;16708;50.426;7.664;2023-02-15T14:36:16;12.90;;;9.60;;
29814;SDS011;16708;50.426;7.664;2023-02-15T14:41:09;11.20;;;9.00;;
29814;SDS011;16708;50.426;7.664;2023-02-15T14:50:56;10.00;;;8.30;;
29814;SDS011;16708;50.426;7.664;2023-02-15T15:00:43;11.70;;;8.90;;
29814;SDS011;16708;50.426;7.664;2023-02-15T15:05:36;12.70;;;9.00;;
29814;SDS011;16708;50.426;7.664;2023-02-15T15:10:30;12.40;;;8.70;;
29814;SDS011;16708;50.426;7.664;2023-02-15T15:15:25;11.80;;;8.40;;
29814;SDS011;16708;50.426;7.664;2023-02-15T15:20:18;12.30;;;9.10;;
29814;SDS011;16708;50.426;7.664;2023-02-15T15:25:12;13.90;;;9.80;;
29814;SDS011;16708;50.426;7.664;2023-02-15T15:54:31;17.60;;;9.60;;
29814;SDS011;16708;50.426;7.664;2023-02-15T15:59:24;19.80;;;10.00;;
29814;SDS011;16708;50.426;7.664;2023-02-15T16:09:12;19.20;;;8.70;;
29814;SDS011;16708;50.426;7.664;2023-02-15T16:14:05;15.20;;;8.10;;
29814;SDS011;16708;50.426;7.664;2023-02-15T16:18:58;28.50;;;13.30;;
29814;SDS011;16708;50.426;7.664;2023-02-15T16:33:39;18.20;;;9.20;;
29814;SDS011;16708;50.426;7.664;2023-02-15T16:38:32;27.90;;;12.80;;
29814;SDS011;16708;50.426;7.664;2023-02-15T16:43:25;16.90;;;9.10;;
29814;SDS011;16708;50.426;7.664;2023-02-15T16:48:19;17.90;;;8.70;;
29814;SDS011;16708;50.426;7.664;2023-02-15T16:53:13;55.90;;;23.70;;
29814;SDS011;16708;50.426;7.664;2023-02-15T16:58:06;63.90;;;29.90;;
29814;SDS011;16708;50.426;7.664;2023-02-15T17:07:53;19.80;;;9.80;;
29814;SDS011;16708;50.426;7.664;2023-02-15T17:12:45;18.30;;;9.60;;
29814;SDS011;16708;50.426;7.664;2023-02-15T17:17:38;21.80;;;10.40;;
29814;SDS011;16708;50.426;7.664;2023-02-15T17:22:33;22.90;;;10.20;;
29814;SDS011;16708;50.426;7.664;2023-02-15T17:27:27;22.40;;;10.50;;
29814;SDS011;16708;50.426;7.664;2023-02-15T17:32:21;22.00;;;10.20;;
29814;SDS011;16708;50.426;7.664;2023-02-15T17:37:14;19.00;;;9.30;;
29814;SDS011;16708;50.426;7.664;2023-02-15T17:42:08;21.90;;;10.30;;
29814;SDS011;16708;50.426;7.664;2023-02-15T17:47:02;22.30;;;10.20;;
29814;SDS011;16708;50.426;7.664;2023-02-15T17:56:49;21.90;;;10.80;;
29814;SDS011;16708;50.426;7.664;2023-02-15T18:01:43;23.10;;;10.40;;
29814;SDS011;16708;50.426;7.664;2023-02-15T18:06:37;23.70;;;11.00;;
29814;SDS011;16708;50.426;7.664;2023-02-15T18:11:33;24.00;;;10.90;;
29814;SDS011;16708;50.426;7.664;2023-02-15T18:16:26;26.20;;;11.10;;
29814;SDS011;16708;50.426;7.664;2023-02-15T18:21:20;25.40;;;11.60;;
29814;SDS011;16708;50.426;7.664;2023-02-15T18:26:14;25.80;;;12.50;;
29814;SDS011;16708;50.426;7.664;2023-02-15T18:31:07;26.70;;;12.40;;
29814;SDS011;16708;50.426;7.664;2023-02-15T18:36:02;30.10;;;13.50;;
29814;SDS011;16708;50.426;7.664;2023-02-15T18:40:56;33.70;;;14.60;;
29814;SDS011;16708;50.426;7.664;2023-02-15T18:45:50;30.60;;;13.20;;
29814;SDS011;16708;50.426;7.664;2023-02-15T18:50:43;34.70;;;13.70;;
29814;SDS011;16708;50.426;7.664;2023-02-15T18:55:37;31.50;;;12.70;;
29814;SDS011;16708;50.426;7.664;2023-02-15T19:00:32;27.20;;;12.70;;
29814;SDS011;16708;50.426;7.664;2023-02-15T19:05:24;27.30;;;12.70;;
29814;SDS011;16708;50.426;7.664;2023-02-15T19:10:18;29.90;;;13.80;;
29814;SDS011;16708;50.426;7.664;2023-02-15T19:15:13;34.90;;;15.00;;
29814;SDS011;16708;50.426;7.664;2023-02-15T19:20:07;35.20;;;14.20;;
29814;SDS011;16708;50.426;7.664;2023-02-15T19:25:01;34.80;;;14.00;;
29814;SDS011;16708;50.426;7.664;2023-02-15T19:29:55;29.10;;;13.30;;
29814;SDS011;16708;50.426;7.664;2023-02-15T19:34:49;30.50;;;13.50;;
29814;SDS011;16708;50.426;7.664;2023-02-15T19:39:42;36.50;;;14.30;;
29814;SDS011;16708;50.426;7.664;2023-02-15T19:44:33;35.80;;;15.40;;
29814;SDS011;16708;50.426;7.664;2023-02-15T19:49:28;34.00;;;14.90;;
29814;SDS011;16708;50.426;7.664;2023-02-15T19:54:22;32.60;;;14.20;;
29814;SDS011;16708;50.426;7.664;2023-02-15T19:59:16;38.90;;;15.30;;
29814;SDS011;16708;50.426;7.664;2023-02-15T20:04:08;34.80;;;14.70;;
29814;SDS011;16708;50.426;7.664;2023-02-15T20:09:02;32.30;;;14.00;;
29814;SDS011;16708;50.426;7.664;2023-02-15T20:13:56;36.60;;;16.20;;
29814;SDS011;16708;50.426;7.664;2023-02-15T20:18:50;36.50;;;16.50;;
29814;SDS011;16708;50.426;7.664;2023-02-15T20:23:44;37.00;;;16.30;;
29814;SDS011;16708;50.426;7.664;2023-02-15T20:28:37;34.60;;;15.00;;
29814;SDS011;16708;50.426;7.664;2023-02-15T20:33:31;34.40;;;15.10;;
29814;SDS011;16708;50.426;7.664;2023-02-15T20:38:25;37.00;;;14.60;;
29814;SDS011;16708;50.426;7.664;2023-02-15T20:48:13;35.80;;;15.60;;
29814;SDS011;16708;50.426;7.664;2023-02-15T20:53:07;38.00;;;16.00;;
29814;SDS011;16708;50.426;7.664;2023-02-15T20:58:01;36.30;;;15.70;;
29814;SDS011;16708;50.426;7.664;2023-02-15T21:02:55;34.20;;;15.60;;
29814;SDS011;16708;50.426;7.664;2023-02-15T21:07:50;45.00;;;19.90;;
29814;SDS011;16708;50.426;7.664;2023-02-15T21:12:40;38.30;;;16.50;;
29814;SDS011;16708;50.426;7.664;2023-02-15T21:17:34;37.70;;;15.60;;
29814;SDS011;16708;50.426;7.664;2023-02-15T21:22:27;36.80;;;15.50;;
29814;SDS011;16708;50.426;7.664;2023-02-15T21:27:19;40.60;;;17.00;;
29814;SDS011;16708;50.426;7.664;2023-02-15T21:32:14;38.40;;;16.50;;
29814;SDS011;16708;50.426;7.664;2023-02-15T21:37:08;35.80;;;15.60;;
29814;SDS011;16708;50.426;7.664;2023-02-15T21:46:56;36.40;;;16.20;;
29814;SDS011;16708;50.426;7.664;2023-02-15T21:51:50;43.20;;;17.50;;
29814;SDS011;16708;50.426;7.664;2023-02-15T21:56:44;38.20;;;16.80;;
29814;SDS011;16708;50.426;7.664;2023-02-15T22:01:38;39.40;;;16.50;;
29814;SDS011;16708;50.426;7.664;2023-02-15T22:06:32;34.40;;;15.10;;
29814;SDS011;16708;50.426;7.664;2023-02-15T22:11:27;36.90;;;16.30;;
29814;SDS011;16708;50.426;7.664;2023-02-15T22:21:15;36.20;;;16.10;;
29814;SDS011;16708;50.426;7.664;2023-02-15T22:26:09;39.40;;;16.40;;
29814;SDS011;16708;50.426;7.664;2023-02-15T22:31:03;43.70;;;17.00;;
29814;SDS011;16708;50.426;7.664;2023-02-15T22:35:59;41.30;;;16.90;;
29814;SDS011;16708;50.426;7.664;2023-02-15T22:40:52;38.00;;;16.10;;
29814;SDS011;16708;50.426;7.664;2023-02-15T22:45:45;40.10;;;15.90;;
29814;SDS011;16708;50.426;7.664;2023-02-15T22:50:40;39.80;;;15.70;;
29814;SDS011;16708;50.426;7.664;2023-02-15T22:55:33;41.20;;;16.30;;
29814;SDS011;16708;50.426;7.664;2023-02-15T23:00:26;41.00;;;17.30;;
29814;SDS011;16708;50.426;7.664;2023-02-15T23:05:20;43.20;;;17.60;;
29814;SDS011;16708;50.426;7.664;2023-02-15T23:10:15;42.70;;;18.10;;
29814;SDS011;16708;50.426;7.664;2023-02-15T23:15:09;44.80;;;17.70;;
29814;SDS011;16708;50.426;7.664;2023-02-15T23:20:02;51.00;;;19.10;;
29814;SDS011;16708;50.426;7.664;2023-02-15T23:24:57;39.50;;;16.60;;
29814;SDS011;16708;50.426;7.664;2023-02-15T23:29:51;47.80;;;18.60;;
29814;SDS011;16708;50.426;7.664;2023-02-15T23:34:45;44.00;;;18.40;;
29814;SDS011;16708;50.426;7.664;2023-02-15T23:39:43;46.80;;;19.20;;
29814;SDS011;16708;50.426;7.664;2023-02-15T23:44:34;43.10;;;17.40;;
29814;SDS011;16708;50.426;7.664;2023-02-15T23:49:28;35.70;;;15.90;;
29814;SDS011;16708;50.426;7.664;2023-02-15T23:54:20;37.60;;;15.80;;
29814;SDS011;16708;50.426;7.664;2023-02-15T23:59:14;38.70;;;15.10;;
